Terminal Aerodrome Forecast
Issued by NWS

Home | Current Version | Previous Version | Text Only | Print | Product List | Glossary On
Versions: 1 2 3 4 5 6 7 8 9 10 11 12 13 14 15 16 17 18
000
FTUS43 KJKL 181100
TAFSME
TAF
KSME 181138Z 1812/1912 VRB03KT P6SM BKN100
     FM190000 VRB03KT P6SM OVC060
     FM190600 VRB03KT P6SM SCT030 BKN050=

USA.gov is the U.S. government's official web portal to all federal, state and local government web resources and services.